ADDS METAR Data INFO
IDs: Format: Raw Decoded Include TAF

Data at: 0329 UTC 16 Dec 2017

KRMG 160253Z AUTO 00000KT 10SM CLR M02/M04 A3023 RMK AO2 SLP239 T10221044 53012
KRMG 160153Z AUTO 00000KT 10SM CLR M02/M04 A3020 RMK AO2 SLP229 T10171044
KRMG 160053Z AUTO 00000KT 10SM CLR M01/M04 A3020 RMK AO2 SLP229 T10061044
KRMG 152353Z AUTO 31005KT 10SM CLR 01/M04 A3020 RMK AO2 SLP227 T00061044 10039 20006 53019
KRMG 152253Z AUTO 30003KT 10SM CLR 02/M04 A3017 RMK AO2 SLP217 T00221044
KRMG 152153Z AUTO 31006KT 10SM CLR 03/M04 A3015 RMK AO2 SLP211 T00331044
KRMG 152053Z AUTO 27009KT 10SM CLR 03/M04 A3014 RMK AO2 SLP206 T00331044 53000
KRMG 151953Z AUTO 28004KT 10SM CLR 03/M04 A3013 RMK AO2 SLP203 T00331044
KRMG 151853Z AUTO 28008KT 10SM CLR 04/M04 A3013 RMK AO2 SLP204 T00391044
KRMG 151753Z AUTO 33007KT 10SM CLR 03/M04 A3014 RMK AO2 PRESFR SLP205 T00331044 10033 20000 50006
KRMG 151653Z AUTO 31008KT 270V330 10SM CLR 03/M04 A3016 RMK AO2 SLP212 T00281044
KRMG 151553Z AUTO 30008KT 10SM SCT028 02/M04 A3015 RMK AO2 SLP208 T00221039
KRMG 151533Z AUTO 33009KT 300V010 10SM BKN027 02/M04 A3013 RMK AO2 T00171044
KRMG 151453Z AUTO 32008KT 10SM CLR 02/M04 A3012 RMK AO2 SLP199 T00171039 53020
KRMG 151353Z AUTO 31006KT 10SM CLR 01/M04 A3010 RMK AO2 SLP191 T00111039
KRMG 151253Z AUTO 29005KT 10SM CLR 01/M03 A3007 RMK AO2 SLP183 T00061033
KRMG 151153Z AUTO 30005KT 9SM CLR M01/M03 A3006 RMK AO2 SLP178 T10061028 10056 21011 53008
KRMG 151053Z AUTO 00000KT 10SM CLR 01/M02 A3004 RMK AO2 SLP170 T00061022
KRMG 150953Z AUTO 36003KT 10SM CLR 02/M02 A3003 RMK AO2 SLP168 T00171017
KRMG 150853Z AUTO 35005KT 10SM CLR 03/M02 A3003 RMK AO2 SLP168 T00331017 53004
KRMG 150753Z AUTO 35004KT 10SM CLR 04/M01 A3001 RMK AO2 SLP160 T00441006
KRMG 150653Z AUTO 02006KT 10SM CLR 04/M01 A3002 RMK AO2 SLP161 T00441006
KRMG 150553Z AUTO 36005KT 10SM CLR 05/00 A3002 RMK AO2 SLP164 T00500000 10100 20039 51008
KRMG 150453Z AUTO 06003KT 10SM CLR 05/01 A3001 RMK AO2 SLP160 T00500011 401441033
KRMG 150353Z AUTO 00000KT 10SM CLR 06/01 A3001 RMK AO2 SLP159 T00610006
KRMG 150253Z AUTO 00000KT 10SM CLR 06/01 A3000 RMK AO2 SLP156 T00560011 51013
KRMG 150153Z AUTO 17004KT 10SM CLR 06/01 A2999 RMK AO2 SLP154 T00560006
KRMG 150053Z AUTO 31005KT 10SM CLR 09/M01 A2997 RMK AO2 SLP149 T00891006
KRMG 142353Z AUTO 31005KT 10SM CLR 10/M01 A2996 RMK AO2 SLP144 T01001011 10144 20100 53010
KRMG 142253Z AUTO 29003KT 10SM CLR 11/00 A2994 RMK AO2 SLP138 T01060000
KRMG 142153Z AUTO 25005KT 10SM CLR 13/00 A2992 RMK AO2 SLP130 T01330000
KRMG 142053Z AUTO 28004KT 10SM CLR 14/00 A2993 RMK AO2 SLP132 T01440000 53001
KRMG 141953Z AUTO 30010G17KT 10SM CLR 14/00 A2992 RMK AO2 SLP129 T01440000
KRMG 141853Z AUTO VRB06KT 10SM CLR 14/01 A2992 RMK AO2 SLP130 T01390006
KRMG 141753Z AUTO VRB06KT 10SM CLR 13/01 A2992 RMK AO2 SLP131 T01280006 10128 21022 58002 $
KRMG 141653Z AUTO VRB03KT 10SM CLR 12/M01 A2994 RMK AO2 SLP137 T01171006 $
KRMG 141553Z AUTO 00000KT 10SM CLR 10/M01 A2994 RMK AO2 SLP137 T01001006